Time;durP1;ratioP1;P1;durP2;ratioP2;P2;SDS_P1;SDS_P2;PMS_P1;PMS_P2;Temp;Humidity;BMP_temperature;BMP_pressure;BME280_temperature;BME280_humidity;BME280_pressure;Samples;Min_cycle;Max_cycle;Signal;HPM_P1;HPM_P2
2022/01/21 00:00:18;;;;;;;4.43;0.88;;;-2.50;99.90;;;;;;5104903;28;20035;-63
2022/01/21 00:02:44;;;;;;;6.10;1.00;;;-2.40;99.90;;;;;;5105412;28;20040;-63
2022/01/21 00:05:11;;;;;;;8.35;1.48;;;-2.30;99.90;;;;;;5108791;28;20084;-63
2022/01/21 00:07:36;;;;;;;3.70;0.80;;;-2.20;99.90;;;;;;5106221;28;20031;-62
2022/01/21 00:10:03;;;;;;;3.63;0.82;;;-2.20;99.90;;;;;;5108511;28;20035;-63
2022/01/21 00:12:30;;;;;;;5.75;1.20;;;-2.10;99.90;;;;;;5106414;28;20039;-63
2022/01/21 00:14:56;;;;;;;2.92;0.75;;;-2.10;99.90;;;;;;5107450;28;20028;-63
2022/01/21 00:17:23;;;;;;;3.70;1.60;;;-2.10;99.90;;;;;;5106013;28;20615;-63
2022/01/21 00:19:53;;;;;;;4.60;0.90;;;-2.10;99.90;;;;;;5095794;28;20054;-63
2022/01/21 00:30:39;;;;;;;6.10;1.13;;;-1.80;99.90;;;;;;5087987;28;20051;-62
2022/01/21 00:33:04;;;;;;;4.00;1.02;;;-1.80;99.90;;;;;;5105235;28;20479;-63
2022/01/21 00:35:30;;;;;;;6.60;1.30;;;-1.70;99.90;;;;;;5070887;28;20036;-63
2022/01/21 00:37:55;;;;;;;2.60;1.00;;;-1.70;99.90;;;;;;5105144;28;20061;-63
2022/01/21 00:40:23;;;;;;;4.38;1.25;;;-1.60;99.90;;;;;;5107983;28;20024;-63
2022/01/21 00:43:04;;;;;;;10.52;1.67;;;-1.60;99.90;;;;;;5094874;28;20484;-63
2022/01/21 00:45:30;;;;;;;11.25;1.35;;;-1.60;99.90;;;;;;5089937;28;20140;-64
2022/01/21 00:47:55;;;;;;;5.28;1.08;;;-1.60;99.90;;;;;;5107619;28;20058;-63
2022/01/21 00:50:21;;;;;;;3.38;0.90;;;-1.50;99.90;;;;;;5110259;28;20031;-63
2022/01/21 00:52:46;;;;;;;10.25;1.20;;;-1.50;99.90;;;;;;5108083;28;20019;-63
2022/01/21 00:55:12;;;;;;;3.88;1.10;;;-1.50;99.90;;;;;;5110258;28;20028;-63
2022/01/21 00:57:38;;;;;;;11.80;1.58;;;-1.50;99.90;;;;;;5107937;28;20161;-62
2022/01/21 01:00:06;;;;;;;5.75;0.98;;;-1.60;99.90;;;;;;5110307;28;20042;-63
2022/01/21 01:02:32;;;;;;;3.55;1.00;;;-1.70;99.90;;;;;;5107795;28;20062;-63
2022/01/21 01:04:59;;;;;;;2.85;1.17;;;-2.00;99.90;;;;;;5110005;28;20020;-63
2022/01/21 01:07:25;;;;;;;5.38;0.98;;;-2.10;99.90;;;;;;5107946;28;20027;-63
2022/01/21 01:09:54;;;;;;;10.98;1.33;;;-2.30;99.90;;;;;;5109838;28;20035;-63
2022/01/21 01:12:34;;;;;;;4.10;0.98;;;-2.40;99.90;;;;;;5107765;28;20517;-63
2022/01/21 01:20:28;;;;;;;3.40;1.05;;;-2.70;99.90;;;;;;5109672;28;20139;-63
2022/01/21 01:23:06;;;;;;;5.43;1.23;;;-2.80;99.90;;;;;;5107452;28;20070;-63
2022/01/21 01:28:16;;;;;;;3.50;1.00;;;-3.00;99.90;;;;;;5099216;28;20640;-63
2022/01/21 01:30:41;;;;;;;5.70;1.13;;;-3.00;99.90;;;;;;5109339;28;20130;-63
2022/01/21 01:33:09;;;;;;;6.53;0.90;;;-3.10;99.90;;;;;;5107478;28;20027;-63
2022/01/21 01:35:36;;;;;;;2.67;1.05;;;-3.10;99.90;;;;;;5109332;28;20020;-64
2022/01/21 01:40:52;;;;;;;3.28;1.27;;;-3.20;99.90;;;;;;5089198;28;20497;-63
2022/01/21 01:51:15;;;;;;;3.08;0.70;;;-3.20;99.90;;;;;;5089122;28;20031;-63
2022/01/21 01:53:46;;;;;;;3.40;0.95;;;-3.10;99.90;;;;;;5106750;28;20058;-63
2022/01/21 01:56:15;;;;;;;6.85;1.30;;;-3.20;99.90;;;;;;5089027;28;20352;-62
2022/01/21 01:58:43;;;;;;;2.67;0.70;;;-3.20;99.90;;;;;;5107137;28;20059;-62
2022/01/21 02:01:08;;;;;;;5.97;0.90;;;-3.20;99.90;;;;;;5109052;28;20032;-63
2022/01/21 02:03:35;;;;;;;3.78;1.13;;;-3.30;99.90;;;;;;5092746;28;20431;-63
2022/01/21 02:06:01;;;;;;;4.68;1.42;;;-3.30;99.90;;;;;;5108496;28;20047;-63
2022/01/21 02:08:28;;;;;;;3.22;0.80;;;-3.30;99.90;;;;;;5107285;28;20443;-63
2022/01/21 02:10:53;;;;;;;3.28;0.70;;;-3.40;99.90;;;;;;5108909;28;20372;-63
2022/01/21 02:13:23;;;;;;;1.13;0.57;;;-3.40;99.90;;;;;;5094738;28;20032;-63
2022/01/21 02:16:13;;;;;;;4.55;0.80;;;-3.40;99.90;;;;;;5108145;28;20066;-63
2022/01/21 02:24:35;;;;;;;1.52;0.68;;;-3.40;99.90;;;;;;5103905;28;20050;-63
2022/01/21 02:27:01;;;;;;;5.07;0.80;;;-3.50;99.90;;;;;;5087907;28;20107;-63
2022/01/21 02:29:29;;;;;;;2.15;0.80;;;-3.50;99.90;;;;;;5108952;28;20031;-63
2022/01/21 02:31:57;;;;;;;3.78;0.80;;;-3.50;99.90;;;;;;5106661;28;20141;-63
2022/01/21 02:34:24;;;;;;;4.63;0.95;;;-3.50;99.90;;;;;;5108989;28;20103;-63
2022/01/21 02:36:49;;;;;;;3.90;0.80;;;-3.50;99.90;;;;;;5108863;28;20066;-63
2022/01/21 02:39:15;;;;;;;7.22;0.95;;;-3.50;99.90;;;;;;5108617;28;20038;-63
2022/01/21 02:41:41;;;;;;;6.93;1.13;;;-3.60;99.90;;;;;;5112233;28;20024;-62
2022/01/21 02:44:13;;;;;;;3.75;0.70;;;-3.60;99.90;;;;;;5104007;28;20031;-63
2022/01/21 02:46:40;;;;;;;1.35;0.65;;;-3.60;99.90;;;;;;5092207;28;20490;-62
2022/01/21 02:49:06;;;;;;;2.72;0.70;;;-3.70;99.90;;;;;;5110434;28;20449;-63
2022/01/21 02:51:31;;;;;;;1.33;0.60;;;-3.70;99.90;;;;;;5112532;28;20028;-63
2022/01/21 02:56:22;;;;;;;2.15;0.90;;;-3.70;99.90;;;;;;5111919;28;20015;-63
2022/01/21 02:58:48;;;;;;;2.85;0.63;;;-3.80;99.90;;;;;;5110460;28;20027;-63
2022/01/21 03:01:15;;;;;;;3.15;0.50;;;-3.80;99.90;;;;;;5112316;28;20521;-63
2022/01/21 03:03:43;;;;;;;3.03;1.10;;;-3.80;99.90;;;;;;5094961;28;20055;-63
2022/01/21 03:06:09;;;;;;;1.20;0.80;;;-3.80;99.90;;;;;;5111937;28;20181;-63
2022/01/21 03:08:34;;;;;;;3.33;0.77;;;-3.80;99.90;;;;;;5110407;28;20122;-64
2022/01/21 03:11:00;;;;;;;4.65;0.77;;;-3.80;99.90;;;;;;5112050;28;20063;-62
2022/01/21 03:13:25;;;;;;;2.53;0.85;;;-3.80;99.90;;;;;;5097173;28;20032;-62
2022/01/21 03:15:52;;;;;;;5.68;0.80;;;-3.80;99.90;;;;;;5111258;28;20028;-62
2022/01/21 03:18:19;;;;;;;3.47;1.08;;;-3.80;99.90;;;;;;5110029;28;20157;-62
2022/01/21 03:20:45;;;;;;;4.50;0.50;;;-3.80;99.90;;;;;;5112033;28;20024;-62
2022/01/21 03:23:16;;;;;;;4.88;0.90;;;-3.80;99.90;;;;;;5110095;28;20042;-62
2022/01/21 03:25:44;;;;;;;8.18;1.20;;;-3.80;99.90;;;;;;5091610;28;20036;-62
2022/01/21 03:28:11;;;;;;;2.65;0.60;;;-3.70;99.90;;;;;;5109728;28;20036;-62
2022/01/21 03:30:37;;;;;;;4.30;0.93;;;-3.70;99.90;;;;;;5093206;28;20035;-61
2022/01/21 03:33:02;;;;;;;3.00;0.70;;;-3.70;99.90;;;;;;5109752;28;20027;-62
2022/01/21 03:35:28;;;;;;;3.08;1.00;;;-3.80;99.90;;;;;;5111759;28;20437;-62
2022/01/21 03:37:54;;;;;;;3.58;0.80;;;-3.90;99.90;;;;;;5109619;28;20023;-62
2022/01/21 03:40:19;;;;;;;2.35;0.80;;;-3.90;99.90;;;;;;5111601;28;20122;-63
2022/01/21 03:42:45;;;;;;;2.83;0.73;;;-3.90;99.90;;;;;;5095237;28;20040;-61
2022/01/21 03:45:12;;;;;;;1.75;0.60;;;-4.00;99.90;;;;;;5110719;28;20020;-62
2022/01/21 03:47:37;;;;;;;3.53;0.65;;;-4.00;99.90;;;;;;5109675;28;20023;-62
2022/01/21 03:50:21;;;;;;;4.78;1.10;;;-4.10;99.90;;;;;;5111845;28;20490;-62
2022/01/21 03:52:46;;;;;;;1.88;0.52;;;-4.10;99.90;;;;;;5109443;28;20028;-62
2022/01/21 03:55:12;;;;;;;2.63;0.82;;;-4.20;99.90;;;;;;5111307;28;20020;-62
2022/01/21 03:57:37;;;;;;;3.08;0.82;;;-4.20;99.90;;;;;;5109210;28;20403;-61
2022/01/21 04:00:06;;;;;;;2.45;0.68;;;-4.20;99.90;;;;;;5111145;28;20122;-62
2022/01/21 04:02:32;;;;;;;3.58;0.60;;;-4.20;99.90;;;;;;5109042;28;20035;-62
2022/01/21 04:04:57;;;;;;;3.72;0.80;;;-4.30;99.90;;;;;;5111186;28;20099;-62
2022/01/21 04:07:22;;;;;;;2.75;0.70;;;-4.30;99.90;;;;;;5109156;28;20535;-62
2022/01/21 04:09:48;;;;;;;4.25;0.75;;;-4.30;99.90;;;;;;5111129;28;20027;-62
2022/01/21 04:12:13;;;;;;;4.25;1.35;;;-4.30;99.90;;;;;;5109272;28;20415;-62
2022/01/21 04:14:41;;;;;;;0.93;0.60;;;-4.30;99.90;;;;;;5110979;28;20032;-62
2022/01/21 04:17:07;;;;;;;2.92;0.63;;;-4.40;99.90;;;;;;5108824;28;20510;-62
2022/01/21 04:19:32;;;;;;;3.30;1.00;;;-4.40;99.90;;;;;;5110576;28;20035;-62
2022/01/21 04:21:57;;;;;;;3.85;0.70;;;-4.50;99.90;;;;;;5108715;28;20043;-62
2022/01/21 04:24:23;;;;;;;4.85;0.50;;;-4.50;99.90;;;;;;5111007;28;20490;-62
2022/01/21 04:26:48;;;;;;;5.10;0.75;;;-4.50;99.90;;;;;;5110516;28;20038;-62
2022/01/21 04:29:15;;;;;;;5.35;1.05;;;-4.50;99.90;;;;;;5108575;28;20020;-62
2022/01/21 04:31:40;;;;;;;5.15;0.70;;;-4.60;99.90;;;;;;5110622;28;20059;-61
2022/01/21 04:34:05;;;;;;;2.20;0.60;;;-4.70;99.90;;;;;;5089871;28;20512;-62
2022/01/21 04:36:31;;;;;;;1.52;0.75;;;-4.70;99.90;;;;;;5110011;28;20038;-62
2022/01/21 04:38:59;;;;;;;1.90;0.80;;;-4.60;99.90;;;;;;5108513;28;20043;-62
2022/01/21 04:47:13;;;;;;;3.35;1.10;;;-4.70;99.90;;;;;;5110503;28;20448;-62
2022/01/21 04:49:38;;;;;;;2.60;0.90;;;-4.50;99.90;;;;;;5110328;28;20514;-61
2022/01/21 04:52:04;;;;;;;6.90;0.90;;;-4.50;99.90;;;;;;5108310;28;20031;-62
2022/01/21 04:54:32;;;;;;;4.15;0.82;;;-4.50;99.90;;;;;;5110475;28;20035;-62
2022/01/21 04:56:59;;;;;;;1.00;0.40;;;-4.50;99.90;;;;;;5107989;28;20085;-63
2022/01/21 04:59:25;;;;;;;5.28;0.90;;;-4.60;99.90;;;;;;5110203;28;20034;-62
2022/01/21 05:01:51;;;;;;;3.75;0.52;;;-4.60;99.90;;;;;;5109480;28;20027;-61
2022/01/21 05:04:18;;;;;;;2.55;0.68;;;-4.70;99.90;;;;;;5110084;28;20036;-63
2022/01/21 05:06:44;;;;;;;0.63;0.40;;;-4.70;99.90;;;;;;5109802;28;20039;-61
2022/01/21 05:09:09;;;;;;;2.85;0.93;;;-4.70;99.90;;;;;;5108134;28;20042;-62
2022/01/21 05:11:37;;;;;;;1.42;0.70;;;-4.70;99.90;;;;;;5106747;28;20030;-61
2022/01/21 05:16:49;;;;;;;5.82;1.00;;;-4.80;99.90;;;;;;5089618;28;20107;-62
2022/01/21 05:19:17;;;;;;;5.75;1.08;;;-4.80;99.90;;;;;;5109942;28;20039;-62
2022/01/21 05:21:48;;;;;;;1.30;0.63;;;-4.70;99.90;;;;;;5107595;28;20092;-61
2022/01/21 05:24:16;;;;;;;1.02;0.70;;;-4.80;99.90;;;;;;5109992;28;20081;-62
2022/01/21 05:26:52;;;;;;;1.45;0.60;;;-4.90;99.90;;;;;;5107849;28;20031;-61
2022/01/21 05:29:18;;;;;;;4.53;0.60;;;-4.90;99.90;;;;;;5104909;28;20012;-61
2022/01/21 05:31:43;;;;;;;3.22;0.80;;;-4.90;99.90;;;;;;5108793;28;20020;-61
2022/01/21 05:34:09;;;;;;;3.45;0.60;;;-4.90;99.90;;;;;;5106205;28;20028;-61
2022/01/21 05:36:37;;;;;;;4.97;1.13;;;-4.90;99.90;;;;;;5108377;28;20034;-61
2022/01/21 05:39:03;;;;;;;3.30;0.70;;;-4.90;99.90;;;;;;5106624;28;20024;-61
2022/01/21 05:41:29;;;;;;;1.20;0.60;;;-4.90;99.90;;;;;;5108329;28;20406;-61
2022/01/21 05:44:04;;;;;;;6.57;1.13;;;-5.00;99.90;;;;;;5100342;28;20043;-60
2022/01/21 05:49:15;;;;;;;7.45;1.20;;;-5.10;99.90;;;;;;5108144;28;20101;-62
2022/01/21 05:51:42;;;;;;;6.90;1.45;;;-5.10;99.90;;;;;;5109361;28;20185;-60
2022/01/21 05:54:08;;;;;;;2.22;1.05;;;-5.10;99.90;;;;;;5093330;28;20044;-61
2022/01/21 05:56:35;;;;;;;2.92;1.08;;;-5.10;99.90;;;;;;5108765;28;20039;-61
2022/01/21 05:59:00;;;;;;;2.40;0.85;;;-5.20;99.90;;;;;;5105731;28;20597;-61
2022/01/21 06:01:27;;;;;;;5.00;1.48;;;-5.20;99.90;;;;;;5109181;28;20080;-61
2022/01/21 06:03:53;;;;;;;5.57;1.02;;;-5.20;99.90;;;;;;5085504;28;20036;-60
2022/01/21 06:06:18;;;;;;;1.85;0.95;;;-5.10;99.90;;;;;;5108696;28;20035;-61
2022/01/21 06:08:44;;;;;;;4.22;0.98;;;-5.10;99.90;;;;;;5107083;28;20046;-61
2022/01/21 06:11:10;;;;;;;1.83;0.90;;;-5.10;99.90;;;;;;5109124;28;20028;-61
2022/01/21 06:14:15;;;;;;;3.58;0.90;;;-5.10;99.90;;;;;;5094678;28;20057;-61
2022/01/21 06:17:40;;;;;;;4.47;1.17;;;-5.10;99.90;;;;;;5107179;28;20032;-61
2022/01/21 06:21:06;;;;;;;4.15;1.30;;;-5.20;99.90;;;;;;5112290;28;20044;-61
2022/01/21 06:24:31;;;;;;;3.28;0.85;;;-5.20;99.90;;;;;;5110787;28;20051;-61
2022/01/21 06:27:56;;;;;;;1.65;0.70;;;-5.20;99.90;;;;;;5105345;28;20123;-60
2022/01/21 06:31:23;;;;;;;2.88;0.75;;;-5.30;99.90;;;;;;5092362;28;20078;-60
2022/01/21 06:34:47;;;;;;;3.42;0.98;;;-5.40;99.90;;;;;;5107765;28;20032;-60
2022/01/21 06:38:12;;;;;;;5.25;0.80;;;-5.40;99.90;;;;;;5105003;28;20445;-61
2022/01/21 06:41:38;;;;;;;2.85;0.65;;;-5.40;99.90;;;;;;5112418;28;20065;-60
2022/01/21 06:45:03;;;;;;;2.20;0.95;;;-5.40;99.90;;;;;;5110196;28;20035;-60
2022/01/21 06:48:29;;;;;;;4.80;1.00;;;-5.40;99.90;;;;;;5107464;28;20080;-60
2022/01/21 06:51:54;;;;;;;2.65;0.60;;;-5.40;99.90;;;;;;5092084;28;20040;-61
2022/01/21 06:55:19;;;;;;;2.13;0.73;;;-5.30;99.90;;;;;;5110294;28;20097;-60
2022/01/21 06:58:45;;;;;;;1.55;0.88;;;-5.30;99.90;;;;;;5106786;28;20047;-61
2022/01/21 07:02:10;;;;;;;2.08;0.95;;;-5.30;99.90;;;;;;5109058;28;20375;-61
2022/01/21 07:05:35;;;;;;;8.70;1.00;;;-5.30;99.90;;;;;;5109145;28;20039;-60
2022/01/21 07:09:01;;;;;;;5.25;1.35;;;-5.30;99.90;;;;;;5104549;28;20027;-61
2022/01/21 07:12:26;;;;;;;7.28;1.77;;;-5.20;99.90;;;;;;5106201;28;20039;-61
2022/01/21 07:15:52;;;;;;;7.18;1.95;;;-5.10;99.90;;;;;;5111039;28;20040;-61
2022/01/21 07:19:17;;;;;;;7.65;1.13;;;-5.00;99.90;;;;;;5102601;28;20057;-60
2022/01/21 07:22:42;;;;;;;1.55;0.80;;;-4.80;99.90;;;;;;5110015;28;20047;-60
2022/01/21 07:26:08;;;;;;;6.82;1.90;;;-4.80;99.90;;;;;;5111182;28;20050;-61
2022/01/21 07:29:33;;;;;;;2.65;1.00;;;-4.80;99.90;;;;;;5105182;28;20023;-61
2022/01/21 07:32:58;;;;;;;3.95;1.13;;;-4.60;99.90;;;;;;5103718;28;20040;-60
2022/01/21 07:36:24;;;;;;;4.00;1.50;;;-4.60;99.90;;;;;;5091279;28;20058;-61
2022/01/21 07:39:49;;;;;;;2.28;0.88;;;-4.60;99.90;;;;;;5107119;28;20126;-60
2022/01/21 07:43:15;;;;;;;8.38;1.52;;;-4.40;99.90;;;;;;5100959;28;20460;-61
2022/01/21 07:46:40;;;;;;;4.32;1.33;;;-4.40;99.90;;;;;;5091083;28;20068;-61
2022/01/21 07:50:05;;;;;;;7.53;1.30;;;-4.30;99.90;;;;;;5109276;28;20433;-61
2022/01/21 07:53:31;;;;;;;8.55;1.58;;;-4.10;99.90;;;;;;5104070;28;20032;-60
2022/01/21 07:56:56;;;;;;;2.17;0.93;;;-4.00;99.90;;;;;;5105219;28;20039;-60
2022/01/21 08:00:21;;;;;;;7.85;1.77;;;-3.80;99.90;;;;;;5109015;28;20084;-60
2022/01/21 08:03:47;;;;;;;2.90;1.30;;;-3.70;99.90;;;;;;5107167;28;20059;-60
2022/01/21 08:07:12;;;;;;;7.00;1.20;;;-3.50;99.90;;;;;;5105358;28;20118;-61
2022/01/21 08:10:37;;;;;;;4.47;1.60;;;-3.30;99.90;;;;;;5105050;28;20036;-61
2022/01/21 08:14:03;;;;;;;6.53;1.85;;;-3.20;99.90;;;;;;5103459;28;20418;-61
2022/01/21 08:17:31;;;;;;;3.63;1.15;;;-3.00;99.90;;;;;;5104845;28;20027;-60
2022/01/21 08:20:56;;;;;;;12.68;2.08;;;-2.70;99.90;;;;;;5108124;28;20062;-60
2022/01/21 08:24:22;;;;;;;6.32;1.38;;;-2.60;99.90;;;;;;5103003;28;20050;-60
2022/01/21 08:27:47;;;;;;;5.03;1.50;;;-2.20;99.90;;;;;;5103936;28;20036;-60
2022/01/21 08:31:13;;;;;;;6.90;1.35;;;-1.10;99.90;;;;;;5110256;28;20089;-61
2022/01/21 08:34:38;;;;;;;6.18;1.13;;;0.30;99.90;;;;;;5104308;28;20031;-60
2022/01/21 08:38:03;;;;;;;5.90;1.27;;;1.50;99.90;;;;;;5090257;28;20035;-60
2022/01/21 08:41:29;;;;;;;3.35;1.00;;;3.00;99.90;;;;;;5089811;28;20028;-60
2022/01/21 08:44:54;;;;;;;4.45;1.40;;;4.20;93.10;;;;;;5106452;28;20065;-61
2022/01/21 08:48:19;;;;;;;5.25;1.73;;;5.00;79.10;;;;;;5102540;28;20039;-60
2022/01/21 08:51:51;;;;;;;7.50;1.77;;;5.60;65.10;;;;;;5104581;28;20058;-61
2022/01/21 08:55:13;;;;;;;7.25;1.80;;;6.30;63.10;;;;;;5103064;28;20494;-61
2022/01/21 08:58:38;;;;;;;5.72;1.42;;;6.90;58.10;;;;;;5104699;28;20024;-61
2022/01/21 09:02:03;;;;;;;4.55;1.10;;;7.50;48.50;;;;;;5104044;28;20057;-61
2022/01/21 09:05:29;;;;;;;5.03;1.73;;;8.00;53.00;;;;;;5108080;28;20180;-61
2022/01/21 09:08:57;;;;;;;6.38;1.85;;;8.10;45.50;;;;;;5104916;28;20031;-61
2022/01/21 09:11:43;;;;;;;;;;;8.20;40.80;;;;;;5104179;28;20039;-62
2022/01/21 09:14:08;;;;;;;5.53;1.53;;;8.00;38.00;;;;;;5090037;28;19912;-63
2022/01/21 09:16:34;;;;;;;9.25;2.33;;;8.30;50.50;;;;;;5109212;28;20024;-63
2022/01/21 09:19:02;;;;;;;4.55;1.58;;;8.30;54.50;;;;;;5107258;28;20190;-62
2022/01/21 09:21:33;;;;;;;3.33;1.25;;;8.50;46.40;;;;;;5109600;28;20573;-63
2022/01/21 09:23:59;;;;;;;5.80;1.55;;;8.90;54.00;;;;;;5103685;28;20073;-62
2022/01/21 09:26:28;;;;;;;5.20;1.92;;;9.30;49.90;;;;;;5109654;28;20054;-63
2022/01/21 09:28:54;;;;;;;3.17;1.50;;;9.30;46.00;;;;;;5091748;28;20399;-63
2022/01/21 09:31:20;;;;;;;6.30;1.27;;;8.50;41.40;;;;;;5108786;28;20031;-63
2022/01/21 09:33:46;;;;;;;5.05;1.45;;;6.60;49.20;;;;;;5107363;28;20027;-63
2022/01/21 09:36:12;;;;;;;5.40;1.35;;;5.00;57.30;;;;;;5109575;28;20532;-63
2022/01/21 09:38:38;;;;;;;3.13;1.13;;;3.90;69.70;;;;;;5094081;28;20060;-62
2022/01/21 09:41:06;;;;;;;3.85;1.58;;;3.10;82.10;;;;;;5108730;28;20040;-62
2022/01/21 09:43:33;;;;;;;5.03;1.55;;;2.40;81.00;;;;;;5103626;28;20403;-63
2022/01/21 09:46:04;;;;;;;9.18;1.42;;;2.10;94.30;;;;;;5109175;28;20027;-62
2022/01/21 09:48:35;;;;;;;7.72;1.98;;;1.70;98.60;;;;;;5099467;28;20027;-62
2022/01/21 09:51:02;;;;;;;7.70;1.80;;;1.50;99.90;;;;;;5088771;28;20998;-62
2022/01/21 09:53:34;;;;;;;5.85;1.50;;;1.40;99.90;;;;;;5107074;28;20110;-62
2022/01/21 09:56:01;;;;;;;7.85;2.33;;;1.30;99.90;;;;;;5108908;28;20032;-62
2022/01/21 09:58:29;;;;;;;4.18;1.38;;;1.20;99.90;;;;;;5095193;28;20182;-62
2022/01/21 10:00:59;;;;;;;8.30;2.13;;;1.10;99.90;;;;;;5107717;28;20037;-62
2022/01/21 10:03:25;;;;;;;8.98;1.63;;;1.00;99.90;;;;;;5098632;28;20112;-63
2022/01/21 10:05:53;;;;;;;5.10;1.63;;;1.00;99.90;;;;;;5108795;28;20035;-62
2022/01/21 10:08:21;;;;;;;4.93;1.92;;;1.00;99.90;;;;;;5106916;28;20031;-62
2022/01/21 10:10:46;;;;;;;3.58;1.58;;;1.00;99.90;;;;;;5108741;28;20056;-62
2022/01/21 10:13:18;;;;;;;9.57;2.10;;;1.00;99.90;;;;;;5106931;28;20146;-62
2022/01/21 10:15:44;;;;;;;5.72;1.70;;;1.10;99.90;;;;;;5088667;28;20024;-62
2022/01/21 10:18:19;;;;;;;8.80;2.08;;;1.00;99.90;;;;;;5106296;28;20024;-62
2022/01/21 10:20:56;;;;;;;2.75;1.52;;;1.00;99.90;;;;;;5088516;28;20024;-62
2022/01/21 10:23:21;;;;;;;9.43;1.98;;;1.00;99.90;;;;;;5097646;28;20035;-62
2022/01/21 10:26:11;;;;;;;7.38;1.55;;;1.00;99.90;;;;;;5090377;28;20490;-62
2022/01/21 10:28:43;;;;;;;7.55;1.90;;;0.90;99.90;;;;;;5099719;28;20409;-61
2022/01/21 10:31:11;;;;;;;7.68;1.92;;;1.00;99.90;;;;;;5108606;28;20031;-62
2022/01/21 10:33:40;;;;;;;4.68;1.75;;;0.90;99.90;;;;;;5106838;28;20027;-61
2022/01/21 10:36:08;;;;;;;11.43;1.85;;;0.90;99.90;;;;;;5108489;28;20028;-62
2022/01/21 10:38:45;;;;;;;9.50;1.83;;;0.90;99.90;;;;;;5093910;28;20162;-62
2022/01/21 10:41:14;;;;;;;2.47;1.35;;;0.90;99.90;;;;;;5088557;28;20024;-62
2022/01/21 10:43:40;;;;;;;5.75;1.50;;;0.90;99.90;;;;;;5099434;28;20444;-61
2022/01/21 10:46:06;;;;;;;5.60;1.20;;;0.90;99.90;;;;;;5108515;28;20100;-61
2022/01/21 10:49:06;;;;;;;8.02;1.60;;;0.80;99.90;;;;;;5094084;28;20039;-62
2022/01/21 10:51:35;;;;;;;9.38;2.42;;;0.80;99.90;;;;;;5107795;28;20115;-62
2022/01/21 10:54:22;;;;;;;8.48;2.45;;;0.80;99.90;;;;;;5106577;28;20057;-61
2022/01/21 10:57:13;;;;;;;9.32;2.58;;;0.80;99.90;;;;;;5088453;28;20028;-61
2022/01/21 10:59:55;;;;;;;13.40;2.67;;;0.80;99.90;;;;;;5088868;28;20024;-61
2022/01/21 11:02:29;;;;;;;8.63;1.75;;;0.80;99.90;;;;;;5109941;28;20028;-61
2022/01/21 11:04:54;;;;;;;7.22;2.33;;;0.80;99.90;;;;;;5112252;28;20028;-61
2022/01/21 11:07:45;;;;;;;7.82;1.98;;;0.80;99.90;;;;;;5110265;28;20026;-61
2022/01/21 11:10:33;;;;;;;11.13;2.17;;;0.70;99.90;;;;;;5112330;28;20020;-62
2022/01/21 11:12:59;;;;;;;12.00;2.63;;;0.70;99.90;;;;;;5097638;28;20193;-62
2022/01/21 11:15:37;;;;;;;9.63;2.42;;;0.80;99.90;;;;;;5112162;28;20100;-62
2022/01/21 11:18:03;;;;;;;14.25;2.55;;;0.80;99.90;;;;;;5098287;28;20208;-62
2022/01/21 11:20:39;;;;;;;10.18;2.40;;;0.80;99.90;;;;;;5111695;28;20072;-62
2022/01/21 11:23:05;;;;;;;;;;;0.80;99.90;;;;;;5099093;28;20043;-61
2022/01/21 11:25:50;;;;;;;5.65;1.95;;;0.80;99.90;;;;;;5111782;28;19908;-62
2022/01/21 11:28:20;;;;;;;9.27;2.20;;;0.80;99.90;;;;;;5109768;28;20538;-62
2022/01/21 11:30:46;;;;;;;11.50;2.90;;;0.80;99.90;;;;;;5111894;28;20024;-61
2022/01/21 11:33:12;;;;;;;7.15;2.25;;;0.90;99.90;;;;;;5109706;28;20067;-62
2022/01/21 11:35:37;;;;;;;12.13;3.17;;;0.80;99.90;;;;;;5111576;28;20464;-61
2022/01/21 11:38:06;;;;;;;7.38;2.00;;;0.80;99.90;;;;;;5109636;28;20052;-62
2022/01/21 11:40:32;;;;;;;8.43;2.75;;;0.80;99.90;;;;;;5111561;28;20039;-62
2022/01/21 11:42:58;;;;;;;6.85;2.65;;;0.80;99.90;;;;;;5101762;28;20110;-62
2022/01/21 11:48:50;;;;;;;7.85;1.80;;;0.80;99.90;;;;;;5096371;28;20123;-62
2022/01/21 11:50:57;;;;;;;5.85;2.03;;;0.90;99.90;;;;;;5111578;28;20478;-61
2022/01/21 11:53:48;;;;;;;5.18;1.85;;;0.90;99.90;;;;;;5109692;28;20122;-62
2022/01/21 11:56:32;;;;;;;6.65;1.48;;;0.90;99.90;;;;;;5111185;28;20055;-61
2022/01/21 11:59:09;;;;;;;3.60;1.45;;;1.00;99.90;;;;;;5092874;28;20055;-61
2022/01/21 12:01:46;;;;;;;7.78;2.30;;;1.00;99.90;;;;;;5110780;28;20118;-62
2022/01/21 12:04:13;;;;;;;7.57;2.95;;;1.00;99.90;;;;;;5085598;28;20384;-62
2022/01/21 12:06:39;;;;;;;7.28;2.20;;;1.00;99.90;;;;;;5110510;28;20046;-61
2022/01/21 12:09:05;;;;;;;8.18;2.30;;;1.00;99.90;;;;;;5091969;28;20028;-62
2022/01/21 12:11:37;;;;;;;6.43;2.17;;;1.00;99.90;;;;;;5109447;28;20530;-62
2022/01/21 12:14:22;;;;;;;8.45;2.63;;;1.10;99.90;;;;;;5105909;28;20059;-62
2022/01/21 12:17:00;;;;;;;7.65;2.35;;;1.10;99.90;;;;;;5072323;28;20028;-61
2022/01/21 12:19:36;;;;;;;8.68;2.13;;;1.30;99.90;;;;;;5108426;28;20032;-62
2022/01/21 12:22:12;;;;;;;7.75;1.80;;;1.30;99.90;;;;;;5090502;28;20028;-62
2022/01/21 12:24:52;;;;;;;5.05;1.27;;;1.30;99.90;;;;;;5090432;28;20097;-61
2022/01/21 12:27:19;;;;;;;7.18;1.70;;;1.20;99.90;;;;;;5108418;28;20102;-61
2022/01/21 12:29:45;;;;;;;3.35;1.23;;;1.30;99.90;;;;;;5110535;28;20479;-61
2022/01/21 12:32:18;;;;;;;6.03;1.92;;;1.20;99.90;;;;;;5108306;28;20323;-62
2022/01/21 12:35:07;;;;;;;4.10;1.52;;;1.20;99.90;;;;;;5110622;28;20389;-61
2022/01/21 12:37:52;;;;;;;5.78;1.98;;;1.20;99.90;;;;;;5092455;28;20016;-62
2022/01/21 12:40:35;;;;;;;3.35;1.40;;;1.20;99.90;;;;;;5110567;28;20108;-62
2022/01/21 12:43:35;;;;;;;4.60;1.33;;;1.20;99.90;;;;;;5104304;28;20634;-62
2022/01/21 12:46:07;;;;;;;3.38;1.25;;;1.20;99.90;;;;;;5089892;28;20082;-62
2022/01/21 12:48:36;;;;;;;5.43;1.88;;;1.30;99.90;;;;;;5108117;28;20019;-62
2022/01/21 12:51:14;;;;;;;3.80;1.27;;;1.30;99.90;;;;;;5109910;28;20261;-62
2022/01/21 12:55:55;;;;;;;12.13;2.25;;;1.30;99.90;;;;;;5101626;28;20487;-62
2022/01/21 12:56:34;;;;;;;2.67;1.00;;;1.30;99.90;;;;;;5093794;28;20027;-62
2022/01/21 12:59:00;;;;;;;2.78;1.10;;;1.20;99.90;;;;;;5107968;28;20085;-62
2022/01/21 13:01:25;;;;;;;2.17;1.08;;;1.20;99.90;;;;;;5109989;28;20032;-62
2022/01/21 13:03:55;;;;;;;12.48;1.75;;;1.20;99.90;;;;;;5107881;28;20114;-62
2022/01/21 13:06:42;;;;;;;6.13;2.17;;;1.20;99.90;;;;;;5109825;28;20372;-62
2022/01/21 13:09:18;;;;;;;5.00;1.63;;;1.30;99.90;;;;;;5105489;28;20053;-62
2022/01/21 13:12:04;;;;;;;3.92;1.10;;;1.30;99.90;;;;;;5109853;28;20113;-61
2022/01/21 13:17:05;;;;;;;4.03;1.65;;;1.40;99.90;;;;;;5109647;28;20399;-63
2022/01/21 13:19:52;;;;;;;3.53;1.10;;;1.40;99.90;;;;;;5107545;28;20740;-62
2022/01/21 13:22:30;;;;;;;7.28;1.92;;;1.40;98.20;;;;;;5088980;28;20024;-62
2022/01/21 13:25:07;;;;;;;4.45;1.30;;;1.40;98.30;;;;;;5107337;28;20040;-62
2022/01/21 13:27:36;;;;;;;2.63;1.17;;;1.40;99.90;;;;;;5089481;28;20049;-62
2022/01/21 13:30:08;;;;;;;3.92;1.17;;;1.40;98.60;;;;;;5107464;28;20032;-62
2022/01/21 13:32:33;;;;;;;3.45;1.10;;;1.50;99.90;;;;;;5109210;28;20038;-62
2022/01/21 13:35:45;;;;;;;4.80;0.80;;;1.50;99.90;;;;;;5092449;28;20028;-62
2022/01/21 13:39:11;;;;;;;2.85;0.93;;;1.40;99.80;;;;;;5103306;28;20088;-62
2022/01/21 13:42:35;;;;;;;3.13;1.30;;;1.40;98.80;;;;;;5102123;28;20666;-59
2022/01/21 13:46:01;;;;;;;4.32;1.33;;;1.40;97.00;;;;;;5107099;28;20082;-61
2022/01/21 13:49:26;;;;;;;7.38;1.10;;;1.40;97.40;;;;;;5108897;28;20068;-62
2022/01/21 13:53:00;;;;;;;2.38;1.00;;;1.40;98.90;;;;;;5100787;28;20526;-62
2022/01/21 13:56:26;;;;;;;2.35;0.90;;;1.40;97.30;;;;;;5109116;28;20039;-62
2022/01/21 13:59:51;;;;;;;4.22;1.08;;;1.30;98.40;;;;;;5105331;28;20046;-62
2022/01/21 14:03:22;;;;;;;2.85;1.00;;;1.10;99.30;;;;;;5107192;28;20039;-60
2022/01/21 14:06:48;;;;;;;3.92;2.03;;;1.00;99.90;;;;;;5106084;28;20114;-62
2022/01/21 14:10:13;;;;;;;3.53;0.85;;;0.90;99.90;;;;;;5103315;28;20061;-62
2022/01/21 14:13:38;;;;;;;1.90;0.80;;;0.80;99.90;;;;;;5101612;28;20046;-63
2022/01/21 14:17:04;;;;;;;3.95;1.02;;;0.70;99.90;;;;;;5101267;28;20076;-62
2022/01/21 14:20:32;;;;;;;2.63;0.70;;;0.60;99.90;;;;;;5103560;28;20438;-60
2022/01/21 14:23:55;;;;;;;4.93;0.82;;;0.50;99.90;;;;;;5099758;28;20100;-61
2022/01/21 14:27:28;;;;;;;5.68;1.90;;;0.50;99.90;;;;;;5107110;28;20028;-61
2022/01/21 14:30:51;;;;;;;2.35;1.20;;;0.50;99.90;;;;;;5102730;28;20062;-62
2022/01/21 14:34:23;;;;;;;2.85;1.25;;;0.40;99.90;;;;;;5101885;28;20028;-61
2022/01/21 14:37:51;;;;;;;4.18;1.05;;;0.40;99.90;;;;;;5107452;28;20503;-63
2022/01/21 14:41:14;;;;;;;6.03;1.38;;;0.30;99.90;;;;;;5106894;28;20070;-62
2022/01/21 14:44:55;;;;;;;3.67;1.20;;;0.30;99.90;;;;;;5101658;28;20048;-63
2022/01/21 14:48:40;;;;;;;5.03;1.30;;;0.20;99.90;;;;;;5110933;28;20043;-63
2022/01/21 14:55:33;;;;;;;5.82;1.05;;;0.00;99.90;;;;;;5107444;28;20034;-63
2022/01/21 14:58:58;;;;;;;2.40;0.95;;;-0.10;99.90;;;;;;5097475;28;20028;-63
2022/01/21 15:02:16;;;;;;;;;;;-0.20;99.90;;;;;;5103812;28;20110;-64
2022/01/21 15:05:42;;;;;;;1.17;0.60;;;-0.30;99.90;;;;;;5111138;28;19919;-63
2022/01/21 15:08:32;;;;;;;9.77;4.35;;;-0.30;99.90;;;;;;5105976;28;20032;-63
2022/01/21 15:14:23;;;;;;;4.55;2.60;;;-0.30;99.90;;;;;;5090841;28;20032;-60